Terminal Aerodrome Forecast
Issued by NWS Hastings, NE

Home | Current Version | Previous Version | Text Only | Print | Product List | Glossary On
Versions: 1 2 3 4 5 6 7 8 9 10 11 12 13 14 15
000
FTUS43 KGID 211135
TAFGRI
TAF
KGRI 211135Z 2112/2212 03006KT P6SM VCSH OVC060
     FM211600 09008KT P6SM VCSH OVC025
     FM220400 VRB04KT P6SM OVC035=

USA.gov is the U.S. government's official web portal to all federal, state and local government web resources and services.